sensor_id;sensor_type;location;lat;lon;timestamp;pressure;altitude;pressure_sealevel;temperature;humidity
7480;BME280;3781;42.272;22.658;2023-09-18T00:00:29;94892.25;;;14.90;nan
7480;BME280;3781;42.272;22.658;2023-09-18T00:02:58;94791.63;;;14.08;nan
7480;BME280;3781;42.272;22.658;2023-09-18T00:05:28;94956.53;;;14.93;nan
7480;BME280;3781;42.272;22.658;2023-09-18T00:07:55;94893.00;;;14.57;nan
7480;BME280;3781;42.272;22.658;2023-09-18T00:10:22;94805.38;;;14.10;nan
7480;BME280;3781;42.272;22.658;2023-09-18T00:12:48;94754.81;;;13.76;nan
7480;BME280;3781;42.272;22.658;2023-09-18T00:15:17;94782.41;;;13.96;nan
7480;BME280;3781;42.272;22.658;2023-09-18T00:17:44;94930.88;;;14.96;nan
7480;BME280;3781;42.272;22.658;2023-09-18T00:20:11;94934.16;;;14.98;nan
7480;BME280;3781;42.272;22.658;2023-09-18T00:22:39;94930.59;;;14.99;nan
7480;BME280;3781;42.272;22.658;2023-09-18T00:25:06;94935.19;;;15.05;nan
7480;BME280;3781;42.272;22.658;2023-09-18T00:27:33;94933.88;;;15.01;nan
7480;BME280;3781;42.272;22.658;2023-09-18T00:30:01;94924.31;;;14.92;nan
7480;BME280;3781;42.272;22.658;2023-09-18T00:32:29;94938.72;;;14.96;nan
7480;BME280;3781;42.272;22.658;2023-09-18T00:34:56;94936.72;;;14.90;nan
7480;BME280;3781;42.272;22.658;2023-09-18T00:37:23;94937.63;;;14.81;nan
7480;BME280;3781;42.272;22.658;2023-09-18T00:39:50;94770.91;;;13.71;nan
7480;BME280;3781;42.272;22.658;2023-09-18T00:42:16;94942.97;;;14.72;nan
7480;BME280;3781;42.272;22.658;2023-09-18T00:44:43;94941.84;;;14.74;nan
7480;BME280;3781;42.272;22.658;2023-09-18T00:47:11;94920.50;;;14.61;nan
7480;BME280;3781;42.272;22.658;2023-09-18T00:49:41;94929.00;;;14.63;nan
7480;BME280;3781;42.272;22.658;2023-09-18T00:52:10;94870.28;;;14.22;nan
7480;BME280;3781;42.272;22.658;2023-09-18T00:54:39;94930.94;;;14.44;nan
7480;BME280;3781;42.272;22.658;2023-09-18T00:57:08;94847.31;;;13.91;nan
7480;BME280;3781;42.272;22.658;2023-09-18T00:59:35;94944.22;;;14.32;nan
7480;BME280;3781;42.272;22.658;2023-09-18T01:02:03;94942.13;;;14.36;nan
7480;BME280;3781;42.272;22.658;2023-09-18T01:04:30;94944.81;;;14.44;nan
7480;BME280;3781;42.272;22.658;2023-09-18T01:06:59;94917.06;;;14.43;nan
7480;BME280;3781;42.272;22.658;2023-09-18T01:09:29;94940.34;;;14.54;nan
7480;BME280;3781;42.272;22.658;2023-09-18T01:12:01;94950.13;;;14.70;nan
7480;BME280;3781;42.272;22.658;2023-09-18T01:14:35;94848.13;;;13.91;nan
7480;BME280;3781;42.272;22.658;2023-09-18T01:17:04;94953.03;;;14.49;nan
7480;BME280;3781;42.272;22.658;2023-09-18T01:19:40;94927.31;;;14.27;nan
7480;BME280;3781;42.272;22.658;2023-09-18T01:22:09;94944.69;;;14.46;nan
7480;BME280;3781;42.272;22.658;2023-09-18T01:24:39;94953.69;;;14.33;nan
7480;BME280;3781;42.272;22.658;2023-09-18T01:27:08;94948.81;;;14.21;nan
7480;BME280;3781;42.272;22.658;2023-09-18T01:29:35;94953.28;;;14.11;nan
7480;BME280;3781;42.272;22.658;2023-09-18T01:32:02;94952.41;;;14.20;nan
7480;BME280;3781;42.272;22.658;2023-09-18T01:34:32;94945.47;;;14.28;nan
7480;BME280;3781;42.272;22.658;2023-09-18T01:37:02;94931.69;;;14.36;nan
7480;BME280;3781;42.272;22.658;2023-09-18T01:39:31;94948.69;;;14.40;nan
7480;BME280;3781;42.272;22.658;2023-09-18T01:42:01;94884.31;;;14.04;nan
7480;BME280;3781;42.272;22.658;2023-09-18T01:44:29;94945.41;;;14.38;nan
7480;BME280;3781;42.272;22.658;2023-09-18T01:46:58;94867.53;;;13.89;nan
7480;BME280;3781;42.272;22.658;2023-09-18T01:49:29;94934.97;;;14.38;nan
7480;BME280;3781;42.272;22.658;2023-09-18T01:51:56;94839.91;;;13.86;nan
7480;BME280;3781;42.272;22.658;2023-09-18T01:54:23;94943.94;;;14.53;nan
7480;BME280;3781;42.272;22.658;2023-09-18T01:56:50;94950.81;;;14.54;nan
7480;BME280;3781;42.272;22.658;2023-09-18T01:59:18;94954.47;;;14.61;nan
7480;BME280;3781;42.272;22.658;2023-09-18T02:01:45;94948.25;;;14.62;nan
7480;BME280;3781;42.272;22.658;2023-09-18T02:04:12;94951.53;;;14.64;nan
7480;BME280;3781;42.272;22.658;2023-09-18T02:06:38;94959.16;;;14.75;nan
7480;BME280;3781;42.272;22.658;2023-09-18T02:09:06;94952.31;;;14.74;nan
7480;BME280;3781;42.272;22.658;2023-09-18T02:11:36;94883.81;;;14.18;nan
7480;BME280;3781;42.272;22.658;2023-09-18T02:14:04;94910.16;;;14.07;nan
7480;BME280;3781;42.272;22.658;2023-09-18T02:16:32;94961.19;;;14.19;nan
7480;BME280;3781;42.272;22.658;2023-09-18T02:18:59;94958.41;;;14.03;nan
7480;BME280;3781;42.272;22.658;2023-09-18T02:21:26;94952.13;;;13.96;nan
7480;BME280;3781;42.272;22.658;2023-09-18T02:23:53;94957.63;;;13.93;nan
7480;BME280;3781;42.272;22.658;2023-09-18T02:26:21;94959.19;;;13.86;nan
7480;BME280;3781;42.272;22.658;2023-09-18T02:28:48;94945.78;;;13.71;nan
7480;BME280;3781;42.272;22.658;2023-09-18T02:31:15;94964.72;;;13.83;nan
7480;BME280;3781;42.272;22.658;2023-09-18T02:33:43;94966.09;;;13.77;nan
7480;BME280;3781;42.272;22.658;2023-09-18T02:36:10;94968.00;;;13.85;nan
7480;BME280;3781;42.272;22.658;2023-09-18T02:38:36;94935.88;;;13.75;nan
7480;BME280;3781;42.272;22.658;2023-09-18T02:41:03;94964.66;;;13.92;nan
7480;BME280;3781;42.272;22.658;2023-09-18T02:43:30;94972.34;;;13.94;nan
7480;BME280;3781;42.272;22.658;2023-09-18T02:45:57;94966.81;;;13.97;nan
7480;BME280;3781;42.272;22.658;2023-09-18T02:48:24;94938.59;;;13.83;nan
7480;BME280;3781;42.272;22.658;2023-09-18T02:50:52;94961.31;;;14.00;nan
7480;BME280;3781;42.272;22.658;2023-09-18T02:53:20;94952.50;;;14.01;nan
7480;BME280;3781;42.272;22.658;2023-09-18T02:55:49;94959.78;;;14.07;nan
7480;BME280;3781;42.272;22.658;2023-09-18T02:58:16;94955.06;;;14.10;nan
7480;BME280;3781;42.272;22.658;2023-09-18T03:00:45;94958.78;;;14.08;nan
7480;BME280;3781;42.272;22.658;2023-09-18T03:03:13;94943.13;;;14.08;nan
7480;BME280;3781;42.272;22.658;2023-09-18T03:05:40;94950.75;;;14.19;nan
7480;BME280;3781;42.272;22.658;2023-09-18T03:08:09;94947.47;;;14.17;nan
7480;BME280;3781;42.272;22.658;2023-09-18T03:10:37;94931.56;;;14.10;nan
7480;BME280;3781;42.272;22.658;2023-09-18T03:13:05;94933.22;;;14.11;nan
7480;BME280;3781;42.272;22.658;2023-09-18T03:15:32;94834.84;;;13.40;nan
7480;BME280;3781;42.272;22.658;2023-09-18T03:18:00;94870.94;;;13.44;nan
7480;BME280;3781;42.272;22.658;2023-09-18T03:20:28;94780.84;;;12.86;nan
7480;BME280;3781;42.272;22.658;2023-09-18T03:22:58;94944.59;;;13.93;nan
7480;BME280;3781;42.272;22.658;2023-09-18T03:25:26;94841.88;;;13.39;nan
7480;BME280;3781;42.272;22.658;2023-09-18T03:27:55;94929.38;;;14.06;nan
7480;BME280;3781;42.272;22.658;2023-09-18T03:30:23;94938.34;;;14.21;nan
7480;BME280;3781;42.272;22.658;2023-09-18T03:32:50;94940.78;;;14.32;nan
7480;BME280;3781;42.272;22.658;2023-09-18T03:35:18;94933.03;;;14.40;nan
7480;BME280;3781;42.272;22.658;2023-09-18T03:37:45;94916.84;;;14.37;nan
7480;BME280;3781;42.272;22.658;2023-09-18T03:40:13;94936.03;;;14.45;nan
7480;BME280;3781;42.272;22.658;2023-09-18T03:42:41;94934.38;;;14.44;nan
7480;BME280;3781;42.272;22.658;2023-09-18T03:45:09;94767.44;;;13.35;nan
7480;BME280;3781;42.272;22.658;2023-09-18T03:47:36;94939.16;;;14.31;nan
7480;BME280;3781;42.272;22.658;2023-09-18T03:50:05;94942.44;;;14.33;nan
7480;BME280;3781;42.272;22.658;2023-09-18T03:52:32;94938.56;;;14.37;nan
7480;BME280;3781;42.272;22.658;2023-09-18T03:54:59;94918.44;;;14.20;nan
7480;BME280;3781;42.272;22.658;2023-09-18T03:57:26;94950.03;;;14.44;nan
7480;BME280;3781;42.272;22.658;2023-09-18T03:59:53;94960.31;;;14.28;nan
7480;BME280;3781;42.272;22.658;2023-09-18T04:02:23;94904.75;;;13.91;nan
7480;BME280;3781;42.272;22.658;2023-09-18T04:04:50;94954.47;;;14.16;nan
7480;BME280;3781;42.272;22.658;2023-09-18T04:07:17;94960.91;;;14.22;nan
7480;BME280;3781;42.272;22.658;2023-09-18T04:09:45;94948.66;;;14.05;nan
7480;BME280;3781;42.272;22.658;2023-09-18T04:12:11;94975.25;;;14.18;nan
7480;BME280;3781;42.272;22.658;2023-09-18T04:14:39;94964.47;;;14.21;nan
7480;BME280;3781;42.272;22.658;2023-09-18T04:17:07;94924.75;;;14.00;nan
7480;BME280;3781;42.272;22.658;2023-09-18T04:19:33;94968.25;;;14.36;nan
7480;BME280;3781;42.272;22.658;2023-09-18T04:22:01;94972.59;;;14.45;nan
7480;BME280;3781;42.272;22.658;2023-09-18T04:24:27;94957.75;;;14.46;nan
7480;BME280;3781;42.272;22.658;2023-09-18T04:26:54;94976.13;;;14.54;nan
7480;BME280;3781;42.272;22.658;2023-09-18T04:29:21;94980.06;;;14.40;nan
7480;BME280;3781;42.272;22.658;2023-09-18T04:31:48;94871.53;;;13.66;nan
7480;BME280;3781;42.272;22.658;2023-09-18T04:34:16;94908.03;;;13.93;nan
7480;BME280;3781;42.272;22.658;2023-09-18T04:36:43;94980.53;;;14.53;nan
7480;BME280;3781;42.272;22.658;2023-09-18T04:39:10;94987.47;;;14.62;nan
7480;BME280;3781;42.272;22.658;2023-09-18T04:41:37;94983.34;;;14.42;nan
7480;BME280;3781;42.272;22.658;2023-09-18T04:44:04;94931.09;;;13.97;nan
7480;BME280;3781;42.272;22.658;2023-09-18T04:46:31;94814.94;;;13.39;nan
7480;BME280;3781;42.272;22.658;2023-09-18T04:48:58;94947.53;;;14.25;nan
7480;BME280;3781;42.272;22.658;2023-09-18T04:51:26;94988.47;;;14.61;nan
7480;BME280;3781;42.272;22.658;2023-09-18T04:53:53;94966.78;;;14.51;nan
7480;BME280;3781;42.272;22.658;2023-09-18T04:56:20;94967.66;;;14.42;nan
7480;BME280;3781;42.272;22.658;2023-09-18T04:58:47;94984.78;;;14.54;nan
7480;BME280;3781;42.272;22.658;2023-09-18T05:01:13;94984.34;;;14.59;nan
7480;BME280;3781;42.272;22.658;2023-09-18T05:03:41;94891.88;;;14.07;nan
7480;BME280;3781;42.272;22.658;2023-09-18T05:06:07;94937.44;;;14.40;nan
7480;BME280;3781;42.272;22.658;2023-09-18T05:08:35;94929.22;;;14.52;nan
7480;BME280;3781;42.272;22.658;2023-09-18T05:11:04;94984.41;;;14.84;nan
7480;BME280;3781;42.272;22.658;2023-09-18T05:13:31;94973.94;;;14.84;nan
7480;BME280;3781;42.272;22.658;2023-09-18T05:15:57;94944.47;;;14.74;nan
7480;BME280;3781;42.272;22.658;2023-09-18T05:18:26;94982.00;;;15.08;nan
7480;BME280;3781;42.272;22.658;2023-09-18T05:20:53;94849.31;;;14.50;nan
7480;BME280;3781;42.272;22.658;2023-09-18T05:23:19;94981.38;;;15.40;nan
7480;BME280;3781;42.272;22.658;2023-09-18T05:25:48;94962.34;;;15.48;nan
7480;BME280;3781;42.272;22.658;2023-09-18T05:28:14;94991.28;;;15.72;nan
7480;BME280;3781;42.272;22.658;2023-09-18T05:30:41;94954.91;;;15.69;nan
7480;BME280;3781;42.272;22.658;2023-09-18T05:33:08;94986.53;;;16.09;nan
7480;BME280;3781;42.272;22.658;2023-09-18T05:35:37;94872.13;;;15.68;nan
7480;BME280;3781;42.272;22.658;2023-09-18T05:38:06;94816.75;;;15.55;nan
7480;BME280;3781;42.272;22.658;2023-09-18T05:40:33;94989.38;;;16.90;nan
7480;BME280;3781;42.272;22.658;2023-09-18T05:43:02;94982.47;;;17.13;nan
7480;BME280;3781;42.272;22.658;2023-09-18T05:45:29;94994.91;;;17.43;nan
7480;BME280;3781;42.272;22.658;2023-09-18T05:47:57;94980.78;;;17.68;nan
7480;BME280;3781;42.272;22.658;2023-09-18T05:50:29;94825.56;;;16.84;nan
7480;BME280;3781;42.272;22.658;2023-09-18T05:52:57;94869.56;;;17.29;nan
7480;BME280;3781;42.272;22.658;2023-09-18T05:55:26;94982.31;;;18.01;nan
7480;BME280;3781;42.272;22.658;2023-09-18T05:57:53;94957.34;;;18.05;nan
7480;BME280;3781;42.272;22.658;2023-09-18T06:00:21;94888.13;;;17.82;nan
7480;BME280;3781;42.272;22.658;2023-09-18T06:02:48;94971.31;;;18.45;nan
7480;BME280;3781;42.272;22.658;2023-09-18T06:05:17;94901.63;;;18.10;nan
7480;BME280;3781;42.272;22.658;2023-09-18T06:07:46;94974.09;;;18.74;nan
7480;BME280;3781;42.272;22.658;2023-09-18T06:10:13;94869.16;;;18.26;nan
7480;BME280;3781;42.272;22.658;2023-09-18T06:12:40;94968.13;;;18.80;nan
7480;BME280;3781;42.272;22.658;2023-09-18T06:15:09;94972.94;;;18.99;nan
7480;BME280;3781;42.272;22.658;2023-09-18T06:17:38;94926.56;;;18.75;nan
7480;BME280;3781;42.272;22.658;2023-09-18T06:20:06;94864.34;;;18.60;nan
7480;BME280;3781;42.272;22.658;2023-09-18T06:22:35;94964.72;;;19.39;nan
7480;BME280;3781;42.272;22.658;2023-09-18T06:25:03;94963.56;;;19.42;nan
7480;BME280;3781;42.272;22.658;2023-09-18T06:27:30;94947.47;;;19.51;nan
7480;BME280;3781;42.272;22.658;2023-09-18T06:29:57;94908.06;;;19.43;nan
7480;BME280;3781;42.272;22.658;2023-09-18T06:32:24;94977.28;;;19.67;nan
7480;BME280;3781;42.272;22.658;2023-09-18T06:34:52;94972.84;;;19.82;nan
7480;BME280;3781;42.272;22.658;2023-09-18T06:37:19;94788.63;;;18.70;nan
7480;BME280;3781;42.272;22.658;2023-09-18T06:39:46;94902.59;;;19.60;nan
7480;BME280;3781;42.272;22.658;2023-09-18T06:42:13;94933.69;;;19.93;nan
7480;BME280;3781;42.272;22.658;2023-09-18T06:44:40;94841.25;;;19.51;nan
7480;BME280;3781;42.272;22.658;2023-09-18T06:47:07;94893.22;;;20.01;nan
7480;BME280;3781;42.272;22.658;2023-09-18T06:49:33;94983.97;;;20.71;nan
7480;BME280;3781;42.272;22.658;2023-09-18T06:52:02;94763.69;;;19.53;nan
7480;BME280;3781;42.272;22.658;2023-09-18T06:54:30;94951.16;;;20.80;nan
7480;BME280;3781;42.272;22.658;2023-09-18T06:56:57;94918.03;;;20.78;nan
7480;BME280;3781;42.272;22.658;2023-09-18T06:59:23;94912.06;;;20.69;nan
7480;BME280;3781;42.272;22.658;2023-09-18T07:01:50;94985.25;;;20.96;nan
7480;BME280;3781;42.272;22.658;2023-09-18T07:04:17;94988.81;;;20.89;nan
7480;BME280;3781;42.272;22.658;2023-09-18T07:06:44;94953.19;;;20.99;nan
7480;BME280;3781;42.272;22.658;2023-09-18T07:09:13;94975.28;;;21.62;nan
7480;BME280;3781;42.272;22.658;2023-09-18T07:11:40;94843.41;;;21.12;nan
7480;BME280;3781;42.272;22.658;2023-09-18T07:14:07;94963.75;;;22.44;nan
7480;BME280;3781;42.272;22.658;2023-09-18T07:16:33;94876.53;;;22.17;nan
7480;BME280;3781;42.272;22.658;2023-09-18T07:19:00;94988.81;;;22.96;nan
7480;BME280;3781;42.272;22.658;2023-09-18T07:21:32;94793.00;;;21.88;nan
7480;BME280;3781;42.272;22.658;2023-09-18T07:24:03;94925.63;;;22.86;nan
7480;BME280;3781;42.272;22.658;2023-09-18T07:26:31;94966.03;;;23.14;nan
7480;BME280;3781;42.272;22.658;2023-09-18T07:28:59;94910.13;;;22.70;nan
7480;BME280;3781;42.272;22.658;2023-09-18T07:31:27;94988.50;;;23.45;nan
7480;BME280;3781;42.272;22.658;2023-09-18T07:33:53;94919.78;;;23.37;nan
7480;BME280;3781;42.272;22.658;2023-09-18T07:36:20;94993.78;;;23.97;nan
7480;BME280;3781;42.272;22.658;2023-09-18T07:38:47;94880.41;;;23.53;nan
7480;BME280;3781;42.272;22.658;2023-09-18T07:41:14;94960.47;;;24.27;nan
7480;BME280;3781;42.272;22.658;2023-09-18T07:43:43;94839.84;;;24.10;nan
7480;BME280;3781;42.272;22.658;2023-09-18T07:46:09;94814.88;;;24.31;nan
7480;BME280;3781;42.272;22.658;2023-09-18T07:48:36;95002.34;;;25.83;nan
7480;BME280;3781;42.272;22.658;2023-09-18T07:51:06;94991.69;;;26.07;nan
7480;BME280;3781;42.272;22.658;2023-09-18T07:53:32;94996.47;;;25.99;nan
7480;BME280;3781;42.272;22.658;2023-09-18T07:55:59;94983.69;;;25.33;nan
7480;BME280;3781;42.272;22.658;2023-09-18T07:58:27;94998.34;;;25.11;nan
7480;BME280;3781;42.272;22.658;2023-09-18T08:00:56;94953.06;;;24.49;nan
7480;BME280;3781;42.272;22.658;2023-09-18T08:03:24;94998.66;;;24.90;nan
7480;BME280;3781;42.272;22.658;2023-09-18T08:05:51;94830.94;;;23.91;nan
7480;BME280;3781;42.272;22.658;2023-09-18T08:08:20;94865.16;;;24.13;nan
7480;BME280;3781;42.272;22.658;2023-09-18T08:10:49;94989.91;;;24.83;nan
7480;BME280;3781;42.272;22.658;2023-09-18T08:13:16;94981.56;;;25.11;nan
7480;BME280;3781;42.272;22.658;2023-09-18T08:15:43;94981.81;;;25.90;nan
7480;BME280;3781;42.272;22.658;2023-09-18T08:18:12;94935.72;;;26.50;nan
7480;BME280;3781;42.272;22.658;2023-09-18T08:20:40;94962.00;;;27.89;nan
7480;BME280;3781;42.272;22.658;2023-09-18T08:23:08;94808.47;;;27.63;nan
7480;BME280;3781;42.272;22.658;2023-09-18T08:25:35;94843.47;;;28.81;nan
7480;BME280;3781;42.272;22.658;2023-09-18T08:28:02;94933.91;;;30.07;nan
7480;BME280;3781;42.272;22.658;2023-09-18T08:30:30;94944.31;;;30.03;nan
7480;BME280;3781;42.272;22.658;2023-09-18T08:32:56;94943.00;;;28.83;nan
7480;BME280;3781;42.272;22.658;2023-09-18T08:35:25;94965.97;;;29.24;nan
7480;BME280;3781;42.272;22.658;2023-09-18T08:37:54;94935.00;;;29.28;nan
7480;BME280;3781;42.272;22.658;2023-09-18T08:40:22;94863.03;;;28.81;nan
7480;BME280;3781;42.272;22.658;2023-09-18T08:42:51;94947.72;;;29.99;nan
7480;BME280;3781;42.272;22.658;2023-09-18T08:45:22;94842.81;;;29.35;nan
7480;BME280;3781;42.272;22.658;2023-09-18T08:47:51;94944.63;;;30.07;nan
7480;BME280;3781;42.272;22.658;2023-09-18T08:50:19;94860.38;;;29.98;nan
7480;BME280;3781;42.272;22.658;2023-09-18T08:52:48;94772.47;;;29.95;nan
7480;BME280;3781;42.272;22.658;2023-09-18T08:55:16;94966.06;;;31.32;nan
7480;BME280;3781;42.272;22.658;2023-09-18T08:57:44;94853.41;;;29.97;nan
7480;BME280;3781;42.272;22.658;2023-09-18T09:00:13;94963.00;;;31.45;nan
7480;BME280;3781;42.272;22.658;2023-09-18T09:02:43;94958.38;;;31.98;nan
7480;BME280;3781;42.272;22.658;2023-09-18T09:05:09;94972.31;;;32.37;nan
7480;BME280;3781;42.272;22.658;2023-09-18T09:07:36;94953.19;;;32.70;nan
7480;BME280;3781;42.272;22.658;2023-09-18T09:10:05;94949.47;;;32.92;nan
7480;BME280;3781;42.272;22.658;2023-09-18T09:12:52;94952.88;;;32.20;nan
7480;BME280;3781;42.272;22.658;2023-09-18T09:15:20;94931.47;;;31.67;nan
7480;BME280;3781;42.272;22.658;2023-09-18T09:17:49;94884.69;;;30.13;nan
7480;BME280;3781;42.272;22.658;2023-09-18T09:20:16;94924.47;;;30.21;nan
7480;BME280;3781;42.272;22.658;2023-09-18T09:22:44;94946.16;;;30.79;nan
7480;BME280;3781;42.272;22.658;2023-09-18T09:25:36;94944.13;;;31.66;nan
7480;BME280;3781;42.272;22.658;2023-09-18T09:28:04;94899.44;;;31.92;nan
7480;BME280;3781;42.272;22.658;2023-09-18T09:30:32;94946.06;;;33.11;nan
7480;BME280;3781;42.272;22.658;2023-09-18T09:32:59;94944.53;;;32.63;nan
7480;BME280;3781;42.272;22.658;2023-09-18T09:35:29;94936.66;;;32.52;nan
7480;BME280;3781;42.272;22.658;2023-09-18T09:37:58;94776.88;;;31.81;nan
7480;BME280;3781;42.272;22.658;2023-09-18T09:40:26;94879.69;;;32.65;nan
7480;BME280;3781;42.272;22.658;2023-09-18T09:42:56;94893.38;;;32.58;nan
7480;BME280;3781;42.272;22.658;2023-09-18T09:45:27;94848.13;;;31.93;nan
7480;BME280;3781;42.272;22.658;2023-09-18T09:47:56;94876.50;;;32.21;nan
7480;BME280;3781;42.272;22.658;2023-09-18T09:50:23;94872.44;;;32.65;nan
7480;BME280;3781;42.272;22.658;2023-09-18T09:52:53;94922.19;;;33.45;nan
7480;BME280;3781;42.272;22.658;2023-09-18T09:55:26;94925.16;;;33.84;nan
7480;BME280;3781;42.272;22.658;2023-09-18T09:57:56;94708.25;;;32.30;nan
7480;BME280;3781;42.272;22.658;2023-09-18T10:00:26;94853.50;;;33.68;nan
7480;BME280;3781;42.272;22.658;2023-09-18T10:02:58;94918.44;;;33.71;nan
7480;BME280;3781;42.272;22.658;2023-09-18T10:05:28;94730.84;;;32.24;nan
7480;BME280;3781;42.272;22.658;2023-09-18T10:07:57;94899.25;;;33.32;nan
7480;BME280;3781;42.272;22.658;2023-09-18T10:10:29;94904.38;;;33.29;nan
7480;BME280;3781;42.272;22.658;2023-09-18T10:13:00;94876.91;;;33.42;nan
7480;BME280;3781;42.272;22.658;2023-09-18T10:15:33;94902.78;;;33.98;nan
7480;BME280;3781;42.272;22.658;2023-09-18T10:18:05;94896.81;;;34.32;nan
7480;BME280;3781;42.272;22.658;2023-09-18T10:20:37;94890.25;;;34.48;nan
7480;BME280;3781;42.272;22.658;2023-09-18T10:23:15;94902.41;;;34.60;nan
7480;BME280;3781;42.272;22.658;2023-09-18T10:25:48;94861.16;;;34.40;nan
7480;BME280;3781;42.272;22.658;2023-09-18T10:28:19;94886.50;;;34.39;nan
7480;BME280;3781;42.272;22.658;2023-09-18T10:30:47;94846.69;;;33.95;nan
7480;BME280;3781;42.272;22.658;2023-09-18T10:33:15;94885.16;;;34.41;nan
7480;BME280;3781;42.272;22.658;2023-09-18T10:35:43;94885.44;;;34.35;nan
7480;BME280;3781;42.272;22.658;2023-09-18T10:38:12;94878.50;;;34.08;nan
7480;BME280;3781;42.272;22.658;2023-09-18T10:40:41;94806.38;;;33.55;nan
7480;BME280;3781;42.272;22.658;2023-09-18T10:43:11;94857.50;;;33.50;nan
7480;BME280;3781;42.272;22.658;2023-09-18T10:45:40;94819.66;;;31.92;nan
7480;BME280;3781;42.272;22.658;2023-09-18T10:48:07;94874.25;;;32.50;nan
7480;BME280;3781;42.272;22.658;2023-09-18T10:50:35;94866.81;;;32.15;nan
7480;BME280;3781;42.272;22.658;2023-09-18T10:53:02;94865.03;;;32.41;nan
7480;BME280;3781;42.272;22.658;2023-09-18T10:55:29;94658.91;;;31.22;nan
7480;BME280;3781;42.272;22.658;2023-09-18T10:58:00;94725.03;;;31.34;nan
7480;BME280;3781;42.272;22.658;2023-09-18T11:00:29;94876.09;;;31.92;nan
7480;BME280;3781;42.272;22.658;2023-09-18T11:03:12;94841.56;;;32.16;nan
7480;BME280;3781;42.272;22.658;2023-09-18T11:05:39;94853.06;;;32.63;nan
7480;BME280;3781;42.272;22.658;2023-09-18T11:08:25;94852.25;;;32.63;nan
7480;BME280;3781;42.272;22.658;2023-09-18T11:10:59;94839.28;;;32.45;nan
7480;BME280;3781;42.272;22.658;2023-09-18T11:13:35;94828.13;;;32.21;nan
7480;BME280;3781;42.272;22.658;2023-09-18T11:16:13;94842.19;;;32.43;nan
7480;BME280;3781;42.272;22.658;2023-09-18T11:18:41;94841.81;;;32.87;nan
7480;BME280;3781;42.272;22.658;2023-09-18T11:21:09;94810.59;;;32.81;nan
7480;BME280;3781;42.272;22.658;2023-09-18T11:23:37;94834.63;;;33.47;nan
7480;BME280;3781;42.272;22.658;2023-09-18T11:26:08;94845.66;;;33.26;nan
7480;BME280;3781;42.272;22.658;2023-09-18T11:28:36;94833.28;;;33.35;nan
7480;BME280;3781;42.272;22.658;2023-09-18T11:31:04;94831.16;;;33.57;nan
7480;BME280;3781;42.272;22.658;2023-09-18T11:33:32;94837.56;;;33.86;nan
7480;BME280;3781;42.272;22.658;2023-09-18T11:36:05;94821.69;;;33.75;nan
7480;BME280;3781;42.272;22.658;2023-09-18T11:38:40;94821.16;;;33.73;nan
7480;BME280;3781;42.272;22.658;2023-09-18T11:41:22;94800.72;;;33.52;nan
7480;BME280;3781;42.272;22.658;2023-09-18T11:43:50;94782.66;;;33.47;nan
7480;BME280;3781;42.272;22.658;2023-09-18T11:46:20;94758.44;;;33.07;nan
7480;BME280;3781;42.272;22.658;2023-09-18T11:48:48;94822.00;;;33.58;nan
7480;BME280;3781;42.272;22.658;2023-09-18T11:51:24;94827.56;;;34.02;nan
7480;BME280;3781;42.272;22.658;2023-09-18T11:53:54;94806.25;;;34.00;nan
7480;BME280;3781;42.272;22.658;2023-09-18T11:56:22;94816.31;;;33.19;nan
7480;BME280;3781;42.272;22.658;2023-09-18T11:58:51;94811.16;;;32.98;nan
7480;BME280;3781;42.272;22.658;2023-09-18T12:01:20;94732.72;;;32.19;nan
7480;BME280;3781;42.272;22.658;2023-09-18T12:03:53;94792.81;;;32.69;nan
7480;BME280;3781;42.272;22.658;2023-09-18T12:06:20;94799.66;;;32.20;nan
7480;BME280;3781;42.272;22.658;2023-09-18T12:08:48;94791.50;;;31.58;nan
7480;BME280;3781;42.272;22.658;2023-09-18T12:11:17;94768.69;;;31.56;nan
7480;BME280;3781;42.272;22.658;2023-09-18T12:13:45;94776.66;;;32.49;nan
7480;BME280;3781;42.272;22.658;2023-09-18T12:16:12;94795.56;;;33.65;nan
7480;BME280;3781;42.272;22.658;2023-09-18T12:18:45;94798.16;;;34.00;nan
7480;BME280;3781;42.272;22.658;2023-09-18T12:21:13;94787.22;;;34.51;nan
7480;BME280;3781;42.272;22.658;2023-09-18T12:23:41;94788.88;;;34.37;nan
7480;BME280;3781;42.272;22.658;2023-09-18T12:26:11;94782.78;;;34.16;nan
7480;BME280;3781;42.272;22.658;2023-09-18T12:28:40;94785.56;;;34.60;nan
7480;BME280;3781;42.272;22.658;2023-09-18T12:31:10;94781.88;;;34.84;nan
7480;BME280;3781;42.272;22.658;2023-09-18T12:33:39;94776.28;;;34.76;nan
7480;BME280;3781;42.272;22.658;2023-09-18T12:36:08;94777.34;;;35.52;nan
7480;BME280;3781;42.272;22.658;2023-09-18T12:38:35;94769.09;;;36.15;nan
7480;BME280;3781;42.272;22.658;2023-09-18T12:41:02;94775.78;;;36.22;nan
7480;BME280;3781;42.272;22.658;2023-09-18T12:43:35;94780.00;;;36.52;nan
7480;BME280;3781;42.272;22.658;2023-09-18T12:46:04;94782.63;;;36.99;nan
7480;BME280;3781;42.272;22.658;2023-09-18T12:48:31;94769.66;;;36.96;nan
7480;BME280;3781;42.272;22.658;2023-09-18T12:51:06;94771.09;;;36.28;nan
7480;BME280;3781;42.272;22.658;2023-09-18T12:53:34;94761.81;;;35.63;nan
7480;BME280;3781;42.272;22.658;2023-09-18T12:56:08;94721.81;;;35.89;nan
7480;BME280;3781;42.272;22.658;2023-09-18T12:58:37;94757.34;;;36.48;nan
7480;BME280;3781;42.272;22.658;2023-09-18T13:01:04;94753.81;;;37.22;nan
7480;BME280;3781;42.272;22.658;2023-09-18T13:03:35;94759.09;;;37.78;nan
7480;BME280;3781;42.272;22.658;2023-09-18T13:06:10;94747.03;;;37.98;nan
7480;BME280;3781;42.272;22.658;2023-09-18T13:08:38;94738.09;;;38.24;nan
7480;BME280;3781;42.272;22.658;2023-09-18T13:11:05;94754.88;;;38.54;nan
7480;BME280;3781;42.272;22.658;2023-09-18T13:13:32;94747.84;;;37.85;nan
7480;BME280;3781;42.272;22.658;2023-09-18T13:16:04;94741.22;;;38.04;nan
7480;BME280;3781;42.272;22.658;2023-09-18T13:18:31;94731.06;;;38.37;nan
7480;BME280;3781;42.272;22.658;2023-09-18T13:20:58;94720.13;;;38.28;nan
7480;BME280;3781;42.272;22.658;2023-09-18T13:23:28;94720.91;;;38.15;nan
7480;BME280;3781;42.272;22.658;2023-09-18T13:25:59;94718.09;;;38.20;nan
7480;BME280;3781;42.272;22.658;2023-09-18T13:35:49;94692.03;;;35.41;nan
7480;BME280;3781;42.272;22.658;2023-09-18T13:38:15;94711.72;;;36.18;nan
7480;BME280;3781;42.272;22.658;2023-09-18T13:40:45;94695.09;;;36.67;nan
7480;BME280;3781;42.272;22.658;2023-09-18T13:43:13;94676.25;;;34.96;nan
7480;BME280;3781;42.272;22.658;2023-09-18T13:45:41;94708.97;;;34.89;nan